createdAt,value
2017-09-25T00:00:00.429Z,84.98
2017-09-25T00:02:29.223Z,84.80
2017-09-25T00:05:00.811Z,84.81
2017-09-25T00:07:29.664Z,84.68
2017-09-25T00:09:58.397Z,84.65
2017-09-25T00:12:27.094Z,84.75
2017-09-25T00:14:55.886Z,85.11
2017-09-25T00:17:24.658Z,85.10
2017-09-25T00:19:53.483Z,84.92
2017-09-25T00:22:22.242Z,84.80
2017-09-25T00:24:50.944Z,84.45
2017-09-25T00:27:19.684Z,84.83
2017-09-25T00:29:48.456Z,84.74
2017-09-25T00:32:17.219Z,84.98
2017-09-25T00:34:45.942Z,85.42
2017-09-25T00:37:14.749Z,85.08
2017-09-25T00:39:43.578Z,84.77
2017-09-25T00:42:12.297Z,84.78
2017-09-25T00:44:41.058Z,84.66
2017-09-25T00:47:09.812Z,84.99
2017-09-25T00:49:38.559Z,85.13
2017-09-25T00:52:06.814Z,85.43
2017-09-25T00:54:35.434Z,85.01
2017-09-25T00:57:04.289Z,85.04
2017-09-25T00:59:32.757Z,84.78
2017-09-25T01:02:12.589Z,85.22
2017-09-25T01:04:52.452Z,85.18
2017-09-25T01:07:21.249Z,85.02
2017-09-25T01:09:49.985Z,85.15
2017-09-25T01:12:18.449Z,85.14
2017-09-25T01:14:47.247Z,85.19
2017-09-25T01:17:15.960Z,85.25
2017-09-25T01:19:44.824Z,85.36
2017-09-25T01:22:13.566Z,85.48
2017-09-25T01:24:42.411Z,85.73
2017-09-25T01:27:11.183Z,85.50
2017-09-25T01:29:39.973Z,85.55
2017-09-25T01:32:10.522Z,85.66
2017-09-25T01:34:39.232Z,85.28
2017-09-25T01:37:08.032Z,85.47
2017-09-25T01:39:36.786Z,85.77
2017-09-25T01:42:05.332Z,85.92
2017-09-25T01:44:34.715Z,85.57
2017-09-25T01:47:03.490Z,85.29
2017-09-25T01:49:32.222Z,85.27
2017-09-25T01:52:01.001Z,85.22
2017-09-25T01:54:29.694Z,85.26
2017-09-25T01:56:58.405Z,85.26
2017-09-25T01:59:27.150Z,85.12
2017-09-25T02:01:55.897Z,85.40
2017-09-25T02:04:24.654Z,85.07
2017-09-25T02:06:53.415Z,84.96
2017-09-25T02:09:22.203Z,85.30
2017-09-25T02:11:51.015Z,85.27
2017-09-25T02:14:19.830Z,85.05
2017-09-25T02:16:48.539Z,84.93
2017-09-25T02:19:17.291Z,85.46
2017-09-25T02:21:46.060Z,85.24
2017-09-25T02:24:14.807Z,85.27
2017-09-25T02:26:43.599Z,84.80
2017-09-25T02:29:12.331Z,84.96
2017-09-25T02:31:41.166Z,84.75
2017-09-25T02:34:09.931Z,84.86
2017-09-25T02:36:38.688Z,84.92
2017-09-25T02:39:07.405Z,85.06
2017-09-25T02:41:36.169Z,85.12
2017-09-25T02:44:04.967Z,84.77
2017-09-25T02:46:33.663Z,84.77
2017-09-25T02:49:02.456Z,84.99
2017-09-25T02:51:31.195Z,85.09
2017-09-25T02:54:00.099Z,85.18
2017-09-25T02:56:28.801Z,84.95
2017-09-25T02:58:59.193Z,85.13
2017-09-25T03:01:27.938Z,85.31
2017-09-25T03:03:56.658Z,85.05
2017-09-25T03:06:25.422Z,85.18
2017-09-25T03:08:54.188Z,85.46
2017-09-25T03:11:23.003Z,85.20
2017-09-25T03:13:51.739Z,85.25
2017-09-25T03:16:20.558Z,85.77
2017-09-25T03:18:49.299Z,85.88
2017-09-25T03:21:18.068Z,85.64
2017-09-25T03:23:46.824Z,85.47
2017-09-25T03:26:15.617Z,85.31
2017-09-25T03:28:44.434Z,85.45
2017-09-25T03:31:13.153Z,85.30
2017-09-25T03:33:41.915Z,85.16
2017-09-25T03:36:10.643Z,85.02
2017-09-25T03:38:39.400Z,85.07
2017-09-25T03:41:08.145Z,85.41
2017-09-25T03:43:36.987Z,85.69
2017-09-25T03:46:05.890Z,85.77
2017-09-25T03:48:36.942Z,85.47
2017-09-25T03:51:05.717Z,85.09
2017-09-25T03:53:34.561Z,85.66
2017-09-25T03:56:03.294Z,85.72
2017-09-25T03:58:35.740Z,85.42
2017-09-25T04:01:04.531Z,85.68
2017-09-25T04:03:33.257Z,85.71
2017-09-25T04:06:01.953Z,85.58
2017-09-25T04:08:34.992Z,85.37
2017-09-25T04:11:03.817Z,85.35
2017-09-25T04:13:32.650Z,85.26
2017-09-25T04:16:03.273Z,85.31
2017-09-25T04:18:37.346Z,85.69
2017-09-25T04:21:06.089Z,85.76
2017-09-25T04:23:34.883Z,85.53
2017-09-25T04:26:08.680Z,86.03
2017-09-25T04:28:39.962Z,85.76
2017-09-25T04:31:08.699Z,85.47
2017-09-25T04:33:41.671Z,85.82
2017-09-25T04:36:17.012Z,86.16
2017-09-25T04:38:45.855Z,86.07
2017-09-25T04:41:14.660Z,86.00
2017-09-25T04:43:43.405Z,85.81
2017-09-25T04:46:13.790Z,85.89
2017-09-25T04:48:42.498Z,85.91
2017-09-25T04:51:13.460Z,86.10
2017-09-25T04:53:43.189Z,86.13
2017-09-25T04:56:12.029Z,86.12
2017-09-25T04:58:40.810Z,86.26
2017-09-25T05:01:09.554Z,86.19
2017-09-25T05:03:38.534Z,86.03
2017-09-25T05:06:08.719Z,86.01
2017-09-25T05:08:37.662Z,86.30
2017-09-25T05:11:06.544Z,86.40
2017-09-25T05:13:35.402Z,86.29
2017-09-25T05:16:04.214Z,86.46
2017-09-25T05:18:35.787Z,86.37
2017-09-25T05:21:04.571Z,86.29
2017-09-25T05:23:37.707Z,86.08
2017-09-25T05:26:06.556Z,86.29
2017-09-25T05:28:39.193Z,86.19
2017-09-25T05:31:08.118Z,85.88
2017-09-25T05:33:36.944Z,86.18
2017-09-25T05:36:05.817Z,86.28
2017-09-25T05:38:36.161Z,86.02
2017-09-25T05:41:05.046Z,86.31
2017-09-25T05:43:33.868Z,86.18
2017-09-25T05:46:02.771Z,86.14
2017-09-25T05:48:35.428Z,86.26
2017-09-25T05:51:04.463Z,86.10
2017-09-25T05:53:33.246Z,86.18
2017-09-25T05:56:02.088Z,86.00
2017-09-25T05:58:35.586Z,85.94
2017-09-25T06:01:04.331Z,86.31
2017-09-25T06:03:33.108Z,86.26
2017-09-25T06:06:01.935Z,86.39
2017-09-25T06:08:34.647Z,86.19
2017-09-25T06:11:03.439Z,86.05
2017-09-25T06:13:32.094Z,85.95
2017-09-25T06:16:00.936Z,86.41
2017-09-25T06:18:29.701Z,86.33
2017-09-25T06:20:58.576Z,86.28
2017-09-25T06:23:27.405Z,86.02
2017-09-25T06:25:56.203Z,86.01
2017-09-25T06:28:25.031Z,86.24
2017-09-25T06:30:53.201Z,85.96
2017-09-25T06:33:22.200Z,86.17
2017-09-25T06:35:50.989Z,86.09
2017-09-25T06:38:19.751Z,86.23
2017-09-25T06:40:48.556Z,86.46
2017-09-25T06:43:17.340Z,86.36
2017-09-25T06:45:46.219Z,86.33
2017-09-25T06:48:15.095Z,86.14
2017-09-25T06:50:43.889Z,86.26
2017-09-25T06:53:12.707Z,86.19
2017-09-25T06:55:41.506Z,86.30
2017-09-25T06:58:10.298Z,86.46
2017-09-25T07:00:39.045Z,86.24
2017-09-25T07:03:07.840Z,86.24
2017-09-25T07:05:36.589Z,86.34
2017-09-25T07:08:05.448Z,86.44
2017-09-25T07:10:34.262Z,86.42
2017-09-25T07:13:03.055Z,86.42
2017-09-25T07:15:31.911Z,86.40
2017-09-25T07:18:00.691Z,86.49
2017-09-25T07:20:29.466Z,86.81
2017-09-25T07:22:58.295Z,86.45
2017-09-25T07:25:27.080Z,86.24
2017-09-25T07:27:55.953Z,86.00
2017-09-25T07:30:24.797Z,86.30
2017-09-25T07:32:53.610Z,86.27
2017-09-25T07:35:22.520Z,86.33
2017-09-25T07:37:51.391Z,86.19
2017-09-25T07:40:20.255Z,86.27
2017-09-25T07:42:49.104Z,86.24
2017-09-25T07:45:17.985Z,86.17
2017-09-25T07:47:46.805Z,86.08
2017-09-25T07:50:15.664Z,85.96
2017-09-25T07:52:44.438Z,86.44
2017-09-25T07:55:13.235Z,86.26
2017-09-25T07:57:42.020Z,86.35
2017-09-25T08:00:10.892Z,86.53
2017-09-25T08:02:39.646Z,86.39
2017-09-25T08:05:08.457Z,86.25
2017-09-25T08:07:37.239Z,86.22
2017-09-25T08:10:07.190Z,86.50
2017-09-25T08:12:37.174Z,86.78
2017-09-25T08:15:05.967Z,86.47
2017-09-25T08:17:34.858Z,86.63
2017-09-25T08:20:03.725Z,86.50
2017-09-25T08:22:32.445Z,86.21
2017-09-25T08:25:01.240Z,86.21
2017-09-25T08:27:30.020Z,86.59
2017-09-25T08:29:58.840Z,86.25
2017-09-25T08:32:27.626Z,86.04
2017-09-25T08:34:56.437Z,86.39
2017-09-25T08:37:25.253Z,86.23
2017-09-25T08:39:54.127Z,86.16
2017-09-25T08:42:22.949Z,85.97
2017-09-25T08:44:51.698Z,86.08
2017-09-25T08:47:20.538Z,85.87
2017-09-25T08:49:49.318Z,86.03
2017-09-25T08:52:18.183Z,86.36
2017-09-25T08:54:46.976Z,86.20
2017-09-25T08:57:15.740Z,86.63
2017-09-25T08:59:44.664Z,86.13
2017-09-25T09:02:13.388Z,85.91
2017-09-25T09:04:42.171Z,86.28
2017-09-25T09:07:11.055Z,85.95
2017-09-25T09:09:39.871Z,85.97
2017-09-25T09:12:08.590Z,86.39
2017-09-25T09:14:37.425Z,86.17
2017-09-25T09:17:06.474Z,86.02
2017-09-25T09:19:35.225Z,86.45
2017-09-25T09:22:04.048Z,86.39
2017-09-25T09:24:32.872Z,86.54
2017-09-25T09:27:01.744Z,86.43
2017-09-25T09:29:30.381Z,86.68
2017-09-25T09:31:59.201Z,86.42
2017-09-25T09:34:28.051Z,86.37
2017-09-25T09:36:56.813Z,86.51
2017-09-25T09:39:25.576Z,86.47
2017-09-25T09:41:54.313Z,86.44
2017-09-25T09:44:23.158Z,86.53
2017-09-25T09:46:51.926Z,86.21
2017-09-25T09:49:20.763Z,86.07
2017-09-25T09:51:49.586Z,86.16
2017-09-25T09:54:18.398Z,86.39
2017-09-25T09:56:47.233Z,86.22
2017-09-25T09:59:16.001Z,86.19
2017-09-25T10:01:44.753Z,86.18
2017-09-25T10:04:13.567Z,86.04
2017-09-25T10:06:42.407Z,86.01
2017-09-25T10:09:11.203Z,86.06
2017-09-25T10:11:39.998Z,86.09
2017-09-25T10:14:08.834Z,85.93
2017-09-25T10:16:37.623Z,85.99
2017-09-25T10:19:06.325Z,85.93
2017-09-25T10:21:35.121Z,85.98
2017-09-25T10:24:03.846Z,85.92
2017-09-25T10:26:32.674Z,85.91
2017-09-25T10:29:01.427Z,85.94
2017-09-25T10:31:30.225Z,85.77
2017-09-25T10:33:58.952Z,85.71
2017-09-25T10:36:27.685Z,85.68
2017-09-25T10:38:56.467Z,85.63
2017-09-25T10:41:25.199Z,85.47
2017-09-25T10:43:53.990Z,85.61
2017-09-25T10:46:22.730Z,85.68
2017-09-25T10:48:51.502Z,85.62
2017-09-25T10:51:20.306Z,85.49
2017-09-25T10:53:49.048Z,85.49
2017-09-25T10:56:17.866Z,85.56
2017-09-25T10:58:46.629Z,85.56
2017-09-25T11:01:15.408Z,85.49
2017-09-25T11:03:44.158Z,85.40
2017-09-25T11:06:13.041Z,85.36
2017-09-25T11:08:41.802Z,85.33
2017-09-25T11:11:10.546Z,85.13
2017-09-25T11:13:39.297Z,85.16
2017-09-25T11:16:08.043Z,85.06
2017-09-25T11:18:36.740Z,85.00
2017-09-25T11:21:05.518Z,85.04
2017-09-25T11:23:34.241Z,85.08
2017-09-25T11:26:03.044Z,85.05
2017-09-25T11:28:34.560Z,84.96
2017-09-25T11:31:03.439Z,84.93
2017-09-25T11:33:32.208Z,84.87
2017-09-25T11:36:04.114Z,84.93
2017-09-25T11:38:35.256Z,84.89
2017-09-25T11:41:03.991Z,84.63
2017-09-25T11:43:32.786Z,84.68
2017-09-25T11:46:01.545Z,84.70
2017-09-25T11:48:34.017Z,84.55
2017-09-25T11:51:02.765Z,84.70
2017-09-25T11:53:31.569Z,84.52
2017-09-25T11:56:00.466Z,84.58
2017-09-25T11:58:29.196Z,84.66
2017-09-25T12:00:58.189Z,84.65
2017-09-25T12:03:27.046Z,84.50
2017-09-25T12:05:55.797Z,84.19
2017-09-25T12:08:24.542Z,84.47
2017-09-25T12:10:53.273Z,84.48
2017-09-25T12:13:23.836Z,84.32
2017-09-25T12:15:52.616Z,84.30
2017-09-25T12:18:21.394Z,84.15
2017-09-25T12:20:50.270Z,84.17
2017-09-25T12:23:18.993Z,84.08
2017-09-25T12:25:47.774Z,84.05
2017-09-25T12:28:16.520Z,83.82
2017-09-25T12:30:45.280Z,83.86
2017-09-25T12:33:14.011Z,83.73
2017-09-25T12:35:42.734Z,83.78
2017-09-25T12:38:11.536Z,83.65
2017-09-25T12:40:40.268Z,83.70
2017-09-25T12:43:09.079Z,83.42
2017-09-25T12:45:37.849Z,83.74
2017-09-25T12:48:06.631Z,83.72
2017-09-25T12:50:35.458Z,83.68
2017-09-25T12:53:04.227Z,83.69
2017-09-25T12:55:32.988Z,83.59
2017-09-25T12:58:01.735Z,83.55
2017-09-25T13:00:30.538Z,83.74
2017-09-25T13:02:59.529Z,83.65
2017-09-25T13:05:30.087Z,83.60
2017-09-25T13:08:02.761Z,83.40
2017-09-25T13:10:31.480Z,83.27
2017-09-25T13:13:00.291Z,83.11
2017-09-25T13:15:28.998Z,83.25
2017-09-25T13:17:57.817Z,83.22
2017-09-25T13:20:26.594Z,83.37
2017-09-25T13:22:55.373Z,83.44
2017-09-25T13:25:24.142Z,83.62
2017-09-25T13:27:52.918Z,83.69
2017-09-25T13:30:21.720Z,83.64
2017-09-25T13:32:50.628Z,83.66
2017-09-25T13:35:19.494Z,83.71
2017-09-25T13:37:48.253Z,83.72
2017-09-25T13:40:16.985Z,83.67
2017-09-25T13:42:45.802Z,83.74
2017-09-25T13:45:14.563Z,83.82
2017-09-25T13:47:43.325Z,83.76
2017-09-25T13:50:12.131Z,83.79
2017-09-25T13:52:40.889Z,83.83
2017-09-25T13:55:09.710Z,83.89
2017-09-25T13:57:38.483Z,84.00
2017-09-25T14:02:41.046Z,84.14
2017-09-25T14:05:09.827Z,84.12
2017-09-25T14:07:38.613Z,84.16
2017-09-25T14:10:07.355Z,84.10
2017-09-25T14:12:36.173Z,84.17
2017-09-25T14:15:04.917Z,84.13
2017-09-25T14:17:33.735Z,84.17
2017-09-25T14:20:02.545Z,84.19
2017-09-25T14:22:31.405Z,84.15
2017-09-25T14:25:00.170Z,84.20
2017-09-25T14:27:28.922Z,84.12
2017-09-25T14:29:57.690Z,84.15
2017-09-25T14:32:26.457Z,84.09
2017-09-25T14:34:55.215Z,84.12
2017-09-25T14:37:23.961Z,84.06
2017-09-25T14:39:52.813Z,84.13
2017-09-25T14:42:21.602Z,84.08
2017-09-25T14:44:50.401Z,84.06
2017-09-25T14:47:19.154Z,84.02
2017-09-25T14:49:47.961Z,84.16
2017-09-25T14:52:16.775Z,84.06
2017-09-25T14:54:45.629Z,84.11
2017-09-25T14:57:14.433Z,83.92
2017-09-25T14:59:43.223Z,83.92
2017-09-25T15:02:11.976Z,83.96
2017-09-25T15:04:40.727Z,83.85
2017-09-25T15:07:09.290Z,83.77
2017-09-25T15:09:38.404Z,83.66
2017-09-25T15:12:07.163Z,83.64
2017-09-25T15:14:35.913Z,83.61
2017-09-25T15:17:04.710Z,83.74
2017-09-25T15:19:33.541Z,83.35
2017-09-25T15:22:02.298Z,83.55
2017-09-25T15:24:32.066Z,83.46
2017-09-25T15:27:15.006Z,83.47
2017-09-25T15:29:54.163Z,83.47
2017-09-25T15:32:29.248Z,83.07
2017-09-25T15:35:03.600Z,83.18
2017-09-25T15:37:32.685Z,83.17
2017-09-25T15:40:02.769Z,82.88
2017-09-25T15:42:38.664Z,83.10
2017-09-25T15:45:15.276Z,83.09
2017-09-25T15:47:45.540Z,82.98
2017-09-25T15:50:20.806Z,83.04
2017-09-25T15:52:49.578Z,83.10
2017-09-25T15:55:21.130Z,83.15
2017-09-25T15:57:58.389Z,83.31
2017-09-25T16:00:38.734Z,83.32
2017-09-25T16:03:14.574Z,83.13
2017-09-25T16:05:47.470Z,83.28
2017-09-25T16:08:19.649Z,83.03
2017-09-25T16:10:53.282Z,83.03
2017-09-25T16:13:32.517Z,82.98
2017-09-25T16:16:11.934Z,82.94
2017-09-25T16:18:54.554Z,82.95
2017-09-25T16:21:33.741Z,83.02
2017-09-25T16:24:13.792Z,82.88
2017-09-25T16:26:50.365Z,82.83
2017-09-25T16:29:23.098Z,82.59
2017-09-25T16:31:58.048Z,82.54
2017-09-25T16:34:36.742Z,82.71
2017-09-25T16:37:12.537Z,82.51
2017-09-25T16:39:49.879Z,82.52
2017-09-25T16:42:23.685Z,82.53
2017-09-25T16:44:57.750Z,82.19
2017-09-25T16:47:34.034Z,82.10
2017-09-25T16:50:08.047Z,81.94
2017-09-25T16:52:50.104Z,82.18
2017-09-25T16:55:27.623Z,82.15
2017-09-25T16:58:02.524Z,82.40
2017-09-25T17:00:35.050Z,81.99
2017-09-25T17:03:08.127Z,82.05
2017-09-25T17:05:44.388Z,82.27
2017-09-25T17:08:21.101Z,82.27
2017-09-25T17:11:01.961Z,82.15
2017-09-25T17:13:33.615Z,82.21
2017-09-25T17:16:06.466Z,82.25
2017-09-25T17:18:40.232Z,82.24
2017-09-25T17:21:20.733Z,82.13
2017-09-25T17:23:52.755Z,82.13
2017-09-25T17:26:33.259Z,82.09
2017-09-25T17:29:07.208Z,82.02
2017-09-25T17:31:39.397Z,82.16
2017-09-25T17:34:14.313Z,82.00
2017-09-25T17:39:25.455Z,82.08
2017-09-25T17:41:54.249Z,81.89
2017-09-25T17:44:29.226Z,81.99
2017-09-25T17:47:03.096Z,81.97
2017-09-25T17:49:36.280Z,81.93
2017-09-25T17:52:20.952Z,81.92
2017-09-25T17:55:01.407Z,81.97
2017-09-25T17:57:45.986Z,82.02
2017-09-25T18:00:27.245Z,81.92
2017-09-25T18:05:50.499Z,81.85
2017-09-25T18:08:27.759Z,81.90
2017-09-25T18:11:09.045Z,81.81
2017-09-25T18:13:54.416Z,81.93
2017-09-25T18:16:34.213Z,81.95
2017-09-25T18:19:15.236Z,82.03
2017-09-25T18:21:57.209Z,82.00
2017-09-25T18:24:37.542Z,81.71
2017-09-25T18:27:19.825Z,81.89
2017-09-25T18:30:01.599Z,81.97
2017-09-25T18:32:42.919Z,81.87
2017-09-25T18:35:25.634Z,81.95
2017-09-25T18:38:01.126Z,81.76
2017-09-25T18:40:29.979Z,81.81
2017-09-25T18:43:07.841Z,81.72
2017-09-25T18:45:49.353Z,81.78
2017-09-25T18:48:18.821Z,81.72
2017-09-25T18:50:47.622Z,81.72
2017-09-25T18:53:16.384Z,81.65
2017-09-25T18:55:45.092Z,81.66
2017-09-25T18:58:13.922Z,81.67
2017-09-25T19:00:43.298Z,81.63
2017-09-25T19:03:12.489Z,81.62
2017-09-25T19:05:53.510Z,81.50
2017-09-25T19:08:28.214Z,81.58
2017-09-25T19:11:09.514Z,81.56
2017-09-25T19:13:52.225Z,81.53
2017-09-25T19:16:34.719Z,81.56
2017-09-25T19:19:06.235Z,81.55
2017-09-25T19:21:47.648Z,81.53
2017-09-25T19:24:30.039Z,81.62
2017-09-25T19:27:05.712Z,81.67
2017-09-25T19:29:47.804Z,81.67
2017-09-25T19:32:25.177Z,81.65
2017-09-25T19:34:57.717Z,81.74
2017-09-25T19:37:27.338Z,81.75
2017-09-25T19:39:55.921Z,81.77
2017-09-25T19:42:24.727Z,81.76
2017-09-25T19:45:08.538Z,81.78
2017-09-25T19:47:51.753Z,81.77
2017-09-25T19:53:36.227Z,81.79
2017-09-25T19:56:07.513Z,81.87
2017-09-25T19:58:47.856Z,81.77
2017-09-25T20:01:16.529Z,81.78
2017-09-25T20:03:45.110Z,81.86
2017-09-25T20:06:13.699Z,81.79
2017-09-25T20:08:58.838Z,81.82
2017-09-25T20:11:44.240Z,81.87
2017-09-25T20:14:28.889Z,81.87
2017-09-25T20:20:33.116Z,81.84
2017-09-25T20:23:17.174Z,81.88
2017-09-25T20:26:00.457Z,81.89
2017-09-25T20:28:48.371Z,81.97
2017-09-25T20:31:31.114Z,81.86
2017-09-25T20:34:15.170Z,81.90
2017-09-25T20:36:58.388Z,81.90
2017-09-25T20:39:41.228Z,81.88
2017-09-25T20:42:28.140Z,81.87
2017-09-25T20:45:14.427Z,81.89
2017-09-25T20:47:59.688Z,81.90
2017-09-25T20:50:47.037Z,81.93
